Time;durP1;ratioP1;P1;durP2;ratioP2;P2;SDS_P1;SDS_P2;PMS_P1;PMS_P2;Temp;Humidity;BMP_temperature;BMP_pressure;BME280_temperature;BME280_humidity;BME280_pressure;Samples;Min_cycle;Max_cycle;Signal;HPM_P1;HPM_P2
2021/10/21 00:00:37;;;;;;;0.20;0.20;;;;;;;11.46;100.00;98749.66;5099257;28;20052;-84
2021/10/21 00:03:10;;;;;;;0.28;0.28;;;;;;;11.35;100.00;98740.25;5084496;28;20051;-84
2021/10/21 00:05:39;;;;;;;0.20;0.20;;;;;;;11.39;100.00;98738.47;5087398;28;20048;-86
2021/10/21 00:08:12;;;;;;;0.20;0.20;;;;;;;11.31;100.00;98726.53;5084556;28;20628;-83
2021/10/21 00:10:48;;;;;;;0.20;0.20;;;;;;;11.26;100.00;98713.09;5080956;28;20044;-86
2021/10/21 00:13:23;;;;;;;0.20;0.20;;;;;;;11.29;100.00;98723.31;5082602;28;20045;-86
2021/10/21 00:15:56;;;;;;;0.20;0.20;;;;;;;11.25;100.00;98719.66;5087669;28;20059;-85
2021/10/21 00:18:29;;;;;;;0.20;0.20;;;;;;;11.23;100.00;98697.44;5087882;28;20036;-86
2021/10/21 00:20:58;;;;;;;0.22;0.22;;;;;;;11.27;100.00;98700.28;5079308;28;20052;-85
2021/10/21 00:23:31;;;;;;;0.20;0.20;;;;;;;11.33;100.00;98704.41;5099180;28;20044;-85
2021/10/21 00:26:00;;;;;;;0.20;0.20;;;;;;;11.33;100.00;98686.13;5089831;28;20377;-86
2021/10/21 00:28:35;;;;;;;0.20;0.20;;;;;;;11.42;100.00;98658.03;5085896;28;20048;-86
2021/10/21 00:31:04;;;;;;;0.20;0.20;;;;;;;11.52;100.00;98671.25;5081852;28;20400;-86
2021/10/21 00:33:32;;;;;;;0.20;0.20;;;;;;;11.56;100.00;98670.22;5086640;28;20408;-86
2021/10/21 00:36:06;;;;;;;0.20;0.20;;;;;;;11.62;100.00;98668.06;5085803;28;20044;-85
2021/10/21 00:38:39;;;;;;;0.20;0.20;;;;;;;11.58;100.00;98658.97;5080308;28;20126;-86
2021/10/21 00:41:12;;;;;;;0.20;0.20;;;;;;;11.58;100.00;98656.25;5090734;28;20052;-86
2021/10/21 00:43:47;;;;;;;0.20;0.20;;;;;;;11.62;100.00;98662.63;5088652;28;20051;-85
2021/10/21 00:46:20;;;;;;;0.20;0.20;;;;;;;11.59;100.00;98652.41;5086555;28;20052;-86
2021/10/21 00:48:53;;;;;;;0.30;0.30;;;;;;;11.58;100.00;98639.91;5088399;28;20049;-85
2021/10/21 00:51:26;;;;;;;0.20;0.20;;;;;;;11.56;100.00;98640.25;5093484;28;20123;-84
2021/10/21 00:54:00;;;;;;;0.20;0.20;;;;;;;11.62;100.00;98629.94;5090730;28;20040;-86
2021/10/21 00:56:33;;;;;;;0.22;0.22;;;;;;;11.54;100.00;98609.03;5090790;28;20048;-85
2021/10/21 00:59:09;;;;;;;0.28;0.28;;;;;;;11.48;100.00;98596.78;5091037;28;20047;-84
2021/10/21 01:01:42;;;;;;;0.20;0.20;;;;;;;11.44;100.00;98584.97;5106018;28;20043;-85
2021/10/21 01:04:16;;;;;;;0.20;0.20;;;;;;;11.40;100.00;98574.72;5088834;28;20051;-86
2021/10/21 01:06:49;;;;;;;0.20;0.20;;;;;;;11.40;100.00;98574.72;5086940;28;20040;-85
2021/10/21 01:09:24;;;;;;;0.20;0.20;;;;;;;11.38;100.00;98562.59;5089731;28;20044;-86
2021/10/21 01:11:52;;;;;;;0.20;0.20;;;;;;;11.37;100.00;98555.56;5090185;28;20063;-85
2021/10/21 01:14:27;;;;;;;0.20;0.20;;;;;;;11.38;100.00;98549.75;5090798;28;20040;-86
2021/10/21 01:16:56;;;;;;;0.20;0.20;;;;;;;11.37;100.00;98528.31;5084000;28;20039;-84
2021/10/21 01:19:29;;;;;;;0.20;0.20;;;;;;;11.29;100.00;98524.53;5085089;28;20411;-85
2021/10/21 01:22:04;;;;;;;0.20;0.20;;;;;;;11.27;100.00;98505.03;5085558;28;20044;-86
2021/10/21 01:24:37;;;;;;;0.20;0.20;;;;;;;11.25;100.00;98495.63;5086310;28;20056;-84
2021/10/21 01:27:05;;;;;;;0.20;0.20;;;;;;;11.21;100.00;98479.16;5086663;28;20040;-85
2021/10/21 01:29:38;;;;;;;0.20;0.20;;;;;;;11.16;100.00;98469.28;5087567;28;20066;-84
2021/10/21 01:32:23;;;;;;;0.20;0.20;;;;;;;11.13;100.00;98450.91;5084361;28;20040;-85
2021/10/21 01:34:56;;;;;;;0.20;0.20;;;;;;;11.07;100.00;98444.09;5108048;28;20790;-86
2021/10/21 01:37:32;;;;;;;0.20;0.20;;;;;;;11.16;100.00;98442.06;5087382;28;20055;-85
2021/10/21 01:40:10;;;;;;;0.30;0.30;;;;;;;11.14;100.00;98436.16;5089749;28;20063;-85
2021/10/21 01:42:44;;;;;;;0.20;0.20;;;;;;;11.03;100.00;98405.88;5086989;28;20053;-85
2021/10/21 01:45:19;;;;;;;0.20;0.20;;;;;;;11.14;100.00;98405.41;5091361;28;20940;-85
2021/10/21 01:47:53;;;;;;;0.30;0.30;;;;;;;11.15;100.00;98394.19;5091052;28;20044;-86
2021/10/21 01:50:28;;;;;;;0.20;0.20;;;;;;;11.15;100.00;98385.25;5085433;28;20044;-86
2021/10/21 01:53:02;;;;;;;0.20;0.20;;;;;;;11.26;100.00;98369.25;5090655;28;20173;-86
2021/10/21 01:55:36;;;;;;;0.20;0.20;;;;;;;11.28;100.00;98367.75;5091017;28;20040;-85
2021/10/21 01:58:09;;;;;;;0.20;0.20;;;;;;;11.28;100.00;98359.56;5097148;28;20059;-84
2021/10/21 02:00:42;;;;;;;0.20;0.20;;;;;;;11.37;100.00;98362.19;5087296;28;20420;-85
2021/10/21 02:03:15;;;;;;;0.20;0.20;;;;;;;11.42;100.00;98367.41;5090550;28;20048;-85
2021/10/21 02:05:48;;;;;;;0.20;0.20;;;;;;;11.46;100.00;98357.44;5088517;28;20703;-84
2021/10/21 02:08:23;;;;;;;0.20;0.20;;;;;;;11.50;100.00;98354.81;5090096;28;20065;-85
2021/10/21 02:10:56;;;;;;;0.20;0.20;;;;;;;11.49;100.00;98342.31;5089991;28;20044;-83
2021/10/21 02:13:29;;;;;;;0.25;0.25;;;;;;;11.45;100.00;98325.88;5083652;28;20056;-84
2021/10/21 02:16:03;;;;;;;0.20;0.20;;;;;;;11.46;100.00;98323.94;5087614;28;20665;-84
2021/10/21 02:18:36;;;;;;;0.20;0.20;;;;;;;11.48;100.00;98311.56;5086882;28;20040;-83
2021/10/21 02:21:09;;;;;;;0.20;0.20;;;;;;;11.45;100.00;98304.09;5093944;28;20045;-83
2021/10/21 02:23:44;;;;;;;0.20;0.20;;;;;;;11.40;100.00;98277.09;5090173;28;20047;-83
2021/10/21 02:26:12;;;;;;;0.25;0.25;;;;;;;11.46;100.00;98255.84;5089698;28;20051;-83
2021/10/21 02:28:45;;;;;;;0.30;0.30;;;;;;;11.35;100.00;98240.00;5086839;28;20047;-83
2021/10/21 02:31:19;;;;;;;0.20;0.20;;;;;;;11.44;100.00;98266.31;5086795;28;20044;-83
2021/10/21 02:33:52;;;;;;;0.20;0.20;;;;;;;11.47;100.00;98252.00;5089164;28;20407;-83
2021/10/21 02:36:26;;;;;;;0.20;0.20;;;;;;;11.45;100.00;98227.84;5090521;28;20047;-83
2021/10/21 02:39:04;;;;;;;0.20;0.20;;;;;;;11.44;100.00;98211.84;5087862;28;20122;-83
2021/10/21 02:41:37;;;;;;;0.28;0.28;;;;;;;11.51;100.00;98201.94;5089973;28;20464;-83
2021/10/21 02:44:10;;;;;;;0.25;0.25;;;;;;;11.46;100.00;98199.47;5088681;28;20040;-82
2021/10/21 02:46:43;;;;;;;0.20;0.20;;;;;;;11.40;100.00;98173.59;5097732;28;20052;-83
2021/10/21 02:49:17;;;;;;;0.10;0.10;;;;;;;11.46;100.00;98185.03;5088041;28;20059;-82
2021/10/21 02:51:50;;;;;;;0.20;0.20;;;;;;;11.48;100.00;98182.78;5089303;28;20353;-82
2021/10/21 02:54:26;;;;;;;0.20;0.20;;;;;;;11.47;100.00;98175.75;5090019;28;20047;-82
2021/10/21 02:56:54;;;;;;;0.20;0.20;;;;;;;11.53;100.00;98177.06;5089595;28;20051;-82
2021/10/21 02:59:22;;;;;;;0.20;0.20;;;;;;;11.53;100.00;98155.28;5086390;28;20065;-83
2021/10/21 03:01:50;;;;;;;0.20;0.20;;;;;;;11.53;100.00;98164.25;5086041;28;20056;-82
2021/10/21 03:04:23;;;;;;;0.17;0.17;;;;;;;11.52;100.00;98121.81;5085924;28;20044;-82
2021/10/21 03:06:56;;;;;;;0.20;0.20;;;;;;;11.50;100.00;98126.03;5088156;28;20048;-81
2021/10/21 03:09:31;;;;;;;0.20;0.20;;;;;;;11.48;100.00;98107.31;5086256;28;20047;-82
2021/10/21 03:12:04;;;;;;;0.20;0.20;;;;;;;11.56;100.00;98100.13;5091361;28;20040;-82
2021/10/21 03:14:37;;;;;;;0.20;0.20;;;;;;;11.50;100.00;98087.88;5087471;28;20040;-83
2021/10/21 03:17:05;;;;;;;0.20;0.20;;;;;;;11.55;100.00;98069.34;5089122;28;20058;-82
2021/10/21 03:19:38;;;;;;;0.20;0.20;;;;;;;11.49;100.00;98057.16;5087460;28;20411;-83
2021/10/21 03:22:11;;;;;;;0.20;0.20;;;;;;;11.46;100.00;98040.72;5081759;28;20067;-82
2021/10/21 03:24:46;;;;;;;0.20;0.20;;;;;;;11.39;100.00;98014.88;5090426;28;20036;-83
2021/10/21 03:27:19;;;;;;;0.20;0.20;;;;;;;11.36;100.00;98007.41;5090061;28;20105;-82
2021/10/21 03:29:52;;;;;;;0.20;0.20;;;;;;;11.37;100.00;98013.66;5087380;28;20916;-84
2021/10/21 03:32:25;;;;;;;0.20;0.20;;;;;;;11.38;100.00;97994.25;5084668;28;20045;-84
2021/10/21 03:34:59;;;;;;;0.20;0.20;;;;;;;11.42;100.00;97980.72;5084286;28;20048;-82
2021/10/21 03:37:32;;;;;;;0.20;0.20;;;;;;;11.46;100.00;97956.28;5081356;28;20048;-83
2021/10/21 03:40:09;;;;;;;0.20;0.20;;;;;;;11.41;100.00;97946.47;5087407;28;20047;-84
2021/10/21 03:42:38;;;;;;;0.20;0.20;;;;;;;11.45;100.00;97949.25;5085451;28;20086;-83
2021/10/21 03:45:11;;;;;;;0.20;0.20;;;;;;;11.45;100.00;97933.72;5087649;28;20040;-83
2021/10/21 03:47:44;;;;;;;0.20;0.20;;;;;;;11.47;100.00;97923.25;5098980;28;20062;-83
2021/10/21 03:50:17;;;;;;;0.20;0.20;;;;;;;11.53;100.00;97910.16;5080959;28;20060;-82
2021/10/21 03:52:50;;;;;;;0.20;0.20;;;;;;;11.55;100.00;97865.06;5082037;28;20044;-82
2021/10/21 03:55:26;;;;;;;0.20;0.20;;;;;;;11.55;100.00;97843.28;5088121;28;20056;-82
2021/10/21 03:57:59;;;;;;;0.10;0.10;;;;;;;11.61;100.00;97832.13;5082767;28;20056;-82
2021/10/21 04:00:27;;;;;;;0.20;0.20;;;;;;;11.69;100.00;97826.47;5084569;28;20063;-85
2021/10/21 04:03:00;;;;;;;0.20;0.20;;;;;;;11.68;100.00;97805.03;5087623;28;20059;-82
2021/10/21 04:05:34;;;;;;;0.20;0.20;;;;;;;11.70;100.00;97803.53;5078305;28;20480;-82
2021/10/21 04:08:08;;;;;;;0.20;0.20;;;;;;;11.76;100.00;97786.91;5080324;28;20051;-82
2021/10/21 04:10:43;;;;;;;0.20;0.20;;;;;;;11.86;100.00;97797.22;5086786;28;20039;-83
2021/10/21 04:13:16;;;;;;;0.20;0.20;;;;;;;11.94;100.00;97795.44;5085797;28;20062;-82
2021/10/21 04:15:51;;;;;;;0.20;0.20;;;;;;;11.96;100.00;97783.06;5088081;28;20052;-82
2021/10/21 04:18:24;;;;;;;0.20;0.20;;;;;;;12.00;100.00;97783.09;5088910;28;20051;-82
2021/10/21 04:20:53;;;;;;;0.20;0.20;;;;;;;12.07;100.00;97794.16;5089541;28;20492;-83
2021/10/21 04:23:21;;;;;;;0.20;0.20;;;;;;;12.10;100.00;97803.53;5086079;28;20047;-83
2021/10/21 04:25:50;;;;;;;0.20;0.20;;;;;;;12.18;100.00;97780.72;5085123;28;20045;-83
2021/10/21 04:28:23;;;;;;;0.20;0.20;;;;;;;12.18;100.00;97775.25;5084463;28;20052;-82
2021/10/21 04:30:57;;;;;;;0.20;0.20;;;;;;;12.16;100.00;97793.94;5090463;28;20407;-83
2021/10/21 04:33:27;;;;;;;0.20;0.20;;;;;;;12.16;100.00;97796.66;5086474;28;20052;-85
2021/10/21 04:36:00;;;;;;;0.22;0.22;;;;;;;12.13;100.00;97751.03;5084946;28;20056;-83
2021/10/21 04:38:33;;;;;;;0.20;0.20;;;;;;;12.14;100.00;97758.84;5085793;28;20056;-84
2021/10/21 04:41:03;;;;;;;0.20;0.20;;;;;;;12.13;100.00;97756.50;5099992;28;20051;-83
2021/10/21 04:43:31;;;;;;;0.20;0.20;;;;;;;12.14;100.00;97747.16;5091947;28;20039;-83
2021/10/21 04:46:04;;;;;;;0.20;0.20;;;;;;;12.14;100.00;97736.25;5089493;28;20032;-83
2021/10/21 04:48:39;;;;;;;0.20;0.20;;;;;;;12.09;100.00;97723.72;5090936;28;20052;-82
2021/10/21 04:51:12;;;;;;;0.20;0.20;;;;;;;12.20;100.00;97772.97;5089701;28;20047;-83
2021/10/21 04:53:47;;;;;;;0.20;0.20;;;;;;;12.25;100.00;97810.84;5084230;28;20056;-82
2021/10/21 04:56:22;;;;;;;0.20;0.20;;;;;;;11.69;100.00;97829.19;5086671;28;20052;-81
2021/10/21 04:58:50;;;;;;;0.20;0.20;;;;;;;11.46;100.00;97812.75;5088118;28;20052;-83
2021/10/21 05:01:23;;;;;;;0.20;0.20;;;;;;;11.12;100.00;97787.13;5086031;28;20052;-81
2021/10/21 05:03:57;;;;;;;0.30;0.30;;;;;;;10.79;100.00;97791.00;5090839;28;20384;-84
2021/10/21 05:06:30;;;;;;;0.20;0.20;;;;;;;10.49;100.00;97783.28;5083512;28;20040;-83
2021/10/21 05:09:04;;;;;;;0.20;0.20;;;;;;;10.40;100.00;97756.28;5088456;28;20051;-82
2021/10/21 05:11:38;;;;;;;0.20;0.20;;;;;;;10.28;100.00;97765.25;5090003;28;20043;-83
2021/10/21 05:14:11;;;;;;;0.20;0.20;;;;;;;10.23;100.00;97756.59;5089153;28;20044;-84
2021/10/21 05:16:44;;;;;;;0.20;0.20;;;;;;;10.33;100.00;97756.84;5081950;28;20064;-83
2021/10/21 05:19:17;;;;;;;0.10;0.10;;;;;;;10.24;100.00;97745.34;5090381;28;20044;-84
2021/10/21 05:21:51;;;;;;;0.20;0.20;;;;;;;10.23;100.00;97754.63;5100731;28;20043;-84
2021/10/21 05:24:24;;;;;;;0.20;0.20;;;;;;;10.25;100.00;97767.88;5085963;28;20058;-84
2021/10/21 05:26:58;;;;;;;0.20;0.20;;;;;;;10.15;100.00;97774.63;5089769;28;20028;-84
2021/10/21 05:29:27;;;;;;;0.20;0.20;;;;;;;10.33;100.00;97780.50;5085484;28;20075;-82
2021/10/21 05:32:05;;;;;;;0.20;0.20;;;;;;;10.35;100.00;97772.84;5088709;28;20047;-85
2021/10/21 05:34:39;;;;;;;0.20;0.20;;;;;;;10.49;100.00;97777.84;5082846;28;20048;-84
2021/10/21 05:37:13;;;;;;;0.20;0.20;;;;;;;10.50;100.00;97780.22;5089890;28;20039;-83
2021/10/21 05:39:46;;;;;;;0.20;0.20;;;;;;;10.81;100.00;97783.28;5081901;28;20052;-83
2021/10/21 05:42:21;;;;;;;0.20;0.20;;;;;;;10.79;100.00;97780.91;5087847;28;20063;-82
2021/10/21 05:44:49;;;;;;;0.20;0.20;;;;;;;10.71;100.00;97787.31;5097732;28;20499;-82
2021/10/21 05:47:17;;;;;;;0.20;0.20;;;;;;;10.75;100.00;97771.09;5086735;28;20048;-84
2021/10/21 05:49:51;;;;;;;0.20;0.20;;;;;;;10.67;100.00;97784.50;5081911;28;20051;-83
2021/10/21 05:52:25;;;;;;;0.15;0.15;;;;;;;10.60;100.00;97786.28;5084178;28;20052;-82
2021/10/21 05:54:58;;;;;;;0.25;0.25;;;;;;;10.60;100.00;97773.47;5088686;28;20407;-83
2021/10/21 05:57:33;;;;;;;0.20;0.20;;;;;;;10.48;100.00;97787.13;5085368;28;20040;-82
2021/10/21 06:00:08;;;;;;;0.15;0.15;;;;;;;10.44;100.00;97780.81;5086430;28;20388;-83
2021/10/21 06:02:40;;;;;;;0.20;0.20;;;;;;;10.46;100.00;97792.94;5089005;28;20040;-83
2021/10/21 06:05:13;;;;;;;0.20;0.20;;;;;;;10.48;100.00;97781.69;5086877;28;20048;-82
2021/10/21 06:07:46;;;;;;;0.30;0.30;;;;;;;10.35;100.00;97789.94;5086612;28;20040;-83
2021/10/21 06:10:20;;;;;;;0.30;0.30;;;;;;;10.45;100.00;97790.56;5083585;28;20047;-83
2021/10/21 06:12:58;;;;;;;0.20;0.20;;;;;;;10.34;100.00;97799.25;5088304;28;20484;-83
2021/10/21 06:15:32;;;;;;;0.20;0.20;;;;;;;10.35;100.00;97805.47;5087033;28;20412;-82
2021/10/21 06:18:03;;;;;;;0.20;0.20;;;;;;;10.32;100.00;97798.00;5081699;28;20044;-83
2021/10/21 06:20:36;;;;;;;0.15;0.15;;;;;;;10.28;100.00;97795.16;5083847;28;20440;-84
2021/10/21 06:23:10;;;;;;;0.20;0.20;;;;;;;10.36;100.00;97791.53;5085714;28;20044;-82
2021/10/21 06:25:43;;;;;;;0.20;0.20;;;;;;;10.34;100.00;97785.66;5080569;28;20060;-82
2021/10/21 06:28:17;;;;;;;0.20;0.20;;;;;;;10.26;100.00;97783.88;5083312;28;20064;-83
2021/10/21 06:30:51;;;;;;;0.20;0.20;;;;;;;10.27;100.00;97769.13;5087485;28;20499;-83
2021/10/21 06:33:24;;;;;;;0.20;0.20;;;;;;;10.34;100.00;97776.66;5085116;28;20059;-83
2021/10/21 06:35:57;;;;;;;0.10;0.10;;;;;;;10.29;100.00;97776.91;5080959;28;20066;-83
2021/10/21 06:38:30;;;;;;;0.20;0.20;;;;;;;10.27;100.00;97790.09;5086279;28;20040;-82
2021/10/21 06:41:04;;;;;;;0.20;0.20;;;;;;;10.32;100.00;97785.19;5082748;28;20040;-80
2021/10/21 06:43:34;;;;;;;0.20;0.20;;;;;;;10.31;100.00;97780.88;5086469;28;20059;-83
2021/10/21 06:46:08;;;;;;;0.20;0.20;;;;;;;10.19;100.00;97794.53;5085545;28;20050;-83
2021/10/21 06:48:41;;;;;;;0.30;0.30;;;;;;;10.21;100.00;97794.97;5083663;28;20047;-82
2021/10/21 06:51:15;;;;;;;0.20;0.20;;;;;;;10.18;100.00;97782.88;5086520;28;20071;-81
2021/10/21 06:53:48;;;;;;;0.20;0.20;;;;;;;10.06;100.00;97784.88;5077838;28;20056;-84
2021/10/21 06:56:21;;;;;;;0.20;0.20;;;;;;;9.95;100.00;97785.38;5085653;28;20055;-82
2021/10/21 06:58:56;;;;;;;0.20;0.20;;;;;;;9.96;100.00;97784.22;5086348;28;20052;-83
2021/10/21 07:01:29;;;;;;;0.20;0.20;;;;;;;9.86;100.00;97788.25;5086996;28;20054;-81
2021/10/21 07:04:04;;;;;;;0.15;0.15;;;;;;;9.84;100.00;97785.06;5086988;28;20055;-81
2021/10/21 07:06:37;;;;;;;0.20;0.20;;;;;;;9.85;100.00;97766.88;5085708;28;20056;-80
2021/10/21 07:09:10;;;;;;;0.20;0.20;;;;;;;9.78;100.00;97753.09;5084734;28;20469;-80
2021/10/21 07:11:43;;;;;;;0.20;0.20;;;;;;;9.75;100.00;97770.88;5077952;28;20059;-81
2021/10/21 07:14:18;;;;;;;0.20;0.20;;;;;;;9.72;100.00;97763.38;5093025;28;20060;-81
2021/10/21 07:16:46;;;;;;;0.20;0.20;;;;;;;9.69;100.00;97766.78;5084992;28;20052;-80
2021/10/21 07:19:19;;;;;;;0.20;0.20;;;;;;;9.68;100.00;97767.94;5088327;28;20056;-81
2021/10/21 07:21:48;;;;;;;0.20;0.20;;;;;;;9.66;100.00;97767.50;5076789;28;20053;-80
2021/10/21 07:24:21;;;;;;;0.10;0.10;;;;;;;9.61;100.00;97754.97;5088515;28;20055;-81
2021/10/21 07:26:54;;;;;;;0.20;0.20;;;;;;;9.60;100.00;97739.00;5088888;28;20039;-81
2021/10/21 07:29:28;;;;;;;0.20;0.20;;;;;;;9.60;100.00;97749.84;5065733;28;20396;-82
2021/10/21 07:32:02;;;;;;;0.20;0.20;;;;;;;9.58;100.00;97744.00;5061256;28;20079;-82
2021/10/21 07:34:36;;;;;;;0.20;0.20;;;;;;;9.54;100.00;97730.31;5061156;28;20051;-81
2021/10/21 07:37:04;;;;;;;0.20;0.20;;;;;;;9.52;100.00;97727.16;5065001;28;20048;-81
2021/10/21 07:39:38;;;;;;;0.20;0.20;;;;;;;9.50;100.00;97718.56;5068418;28;20052;-81
2021/10/21 07:42:12;;;;;;;0.20;0.20;;;;;;;9.51;100.00;97715.53;5062883;28;20053;-82
2021/10/21 07:44:47;;;;;;;0.20;0.20;;;;;;;9.49;100.00;97706.16;5064005;28;20048;-81
2021/10/21 07:47:20;;;;;;;0.20;0.20;;;;;;;9.44;100.00;97698.25;5067974;28;20049;-82
2021/10/21 07:49:53;;;;;;;0.55;0.20;;;;;;;9.39;100.00;97693.84;5062107;28;20052;-81
2021/10/21 07:52:26;;;;;;;0.20;0.20;;;;;;;9.38;100.00;97680.59;5065412;28;20044;-81
2021/10/21 07:54:59;;;;;;;0.20;0.20;;;;;;;9.42;100.00;97681.50;5061805;28;20059;-81
2021/10/21 07:57:33;;;;;;;0.20;0.20;;;;;;;9.42;100.00;97678.78;5065503;28;20472;-82
2021/10/21 08:00:09;;;;;;;0.20;0.20;;;;;;;9.47;100.00;97686.69;5064182;28;20045;-80
2021/10/21 08:02:43;;;;;;;0.20;0.20;;;;;;;9.46;100.00;97693.25;5065384;28;20055;-81
2021/10/21 08:05:16;;;;;;;0.20;0.20;;;;;;;9.44;100.00;97685.44;5063957;28;20060;-81
2021/10/21 08:07:45;;;;;;;0.30;0.30;;;;;;;9.40;100.00;97700.06;5063071;28;20048;-81
2021/10/21 08:10:16;;;;;;;0.20;0.20;;;;;;;9.41;100.00;97704.38;5070479;28;20063;-82
2021/10/21 08:12:50;;;;;;;0.20;0.20;;;;;;;9.40;100.00;97706.28;5065180;28;20067;-80
2021/10/21 08:15:25;;;;;;;0.10;0.10;;;;;;;9.42;100.00;97709.44;5066417;28;20048;-80
2021/10/21 08:17:58;;;;;;;0.15;0.15;;;;;;;9.37;100.00;97701.53;5062640;28;20056;-80
2021/10/21 08:20:28;;;;;;;0.20;0.20;;;;;;;9.37;100.00;97698.81;5069898;28;20070;-83
2021/10/21 08:23:01;;;;;;;0.20;0.20;;;;;;;9.34;100.00;97703.00;5072589;28;20052;-83
2021/10/21 08:25:37;;;;;;;0.15;0.15;;;;;;;9.32;100.00;97715.34;5070000;28;20063;-81
2021/10/21 08:28:11;;;;;;;0.20;0.20;;;;;;;9.32;100.00;97734.34;5080225;28;20060;-81
2021/10/21 08:30:43;;;;;;;0.20;0.20;;;;;;;9.33;100.00;97730.50;5059531;28;20047;-81
2021/10/21 08:33:16;;;;;;;0.20;0.20;;;;;;;9.15;100.00;97743.56;5062529;28;20082;-84
2021/10/21 08:35:49;;;;;;;0.17;0.17;;;;;;;9.15;100.00;97755.19;5062931;28;20064;-83
2021/10/21 08:38:23;;;;;;;0.20;0.20;;;;;;;9.05;100.00;97768.44;5063211;28;20040;-82
2021/10/21 08:40:56;;;;;;;0.20;0.20;;;;;;;8.97;100.00;97772.84;5066916;28;20516;-83
2021/10/21 08:43:29;;;;;;;0.20;0.20;;;;;;;8.95;100.00;97788.66;5066161;28;20059;-81
2021/10/21 08:46:04;;;;;;;0.10;0.10;;;;;;;8.99;100.00;97800.41;5065144;28;20052;-82
2021/10/21 08:48:40;;;;;;;0.20;0.20;;;;;;;9.01;100.00;97825.28;5064502;28;20055;-82
2021/10/21 08:51:14;;;;;;;0.20;0.20;;;;;;;8.91;100.00;97831.16;5077674;28;20057;-82
2021/10/21 08:53:47;;;;;;;0.20;0.20;;;;;;;8.92;100.00;97860.66;5063696;28;20551;-83
2021/10/21 08:56:21;;;;;;;0.20;0.20;;;;;;;8.95;100.00;97872.75;5079003;28;20677;-80
2021/10/21 08:58:51;;;;;;;0.20;0.20;;;;;;;8.87;100.00;97884.50;5065021;28;20047;-81
2021/10/21 09:01:35;;;;;;;0.20;0.20;;;;;;;8.85;100.00;97920.06;5070863;28;20059;-80
2021/10/21 09:04:22;;;;;;;0.20;0.20;;;;;;;8.76;100.00;97931.03;5070544;28;20055;-83
2021/10/21 09:09:51;;;;;;;0.20;0.20;;;;;;;8.64;100.00;97971.66;5061847;28;20444;-81
2021/10/21 09:12:24;;;;;;;0.10;0.10;;;;;;;8.53;100.00;97984.81;5068266;28;20060;-81
2021/10/21 09:15:09;;;;;;;0.20;0.20;;;;;;;8.40;100.00;98002.94;5069166;28;20059;-81
2021/10/21 09:17:39;;;;;;;0.20;0.20;;;;;;;8.40;100.00;98024.59;5070745;28;20048;-81
2021/10/21 09:20:27;;;;;;;0.10;0.10;;;;;;;8.43;100.00;98045.63;5065922;28;20051;-81
2021/10/21 09:23:05;;;;;;;0.20;0.20;;;;;;;8.47;100.00;98060.13;5073816;28;20049;-81
2021/10/21 09:25:40;;;;;;;0.20;0.20;;;;;;;8.45;100.00;98103.03;5067032;28;20047;-82
2021/10/21 09:28:23;;;;;;;0.20;0.20;;;;;;;8.57;100.00;98109.66;5068650;28;20056;-81
2021/10/21 09:30:54;;;;;;;0.20;0.20;;;;;;;8.50;100.00;98123.72;5062081;28;20056;-82
2021/10/21 09:33:24;;;;;;;0.22;0.22;;;;;;;8.65;100.00;98155.69;5082896;28;20057;-82
2021/10/21 09:36:00;;;;;;;0.20;0.20;;;;;;;8.67;100.00;98158.06;5076880;28;20663;-81
2021/10/21 09:38:34;;;;;;;0.20;0.20;;;;;;;8.65;100.00;98171.94;5064122;28;20054;-81
2021/10/21 09:41:15;;;;;;;0.20;0.20;;;;;;;8.71;100.00;98194.25;5063297;28;20056;-81
2021/10/21 09:43:50;;;;;;;0.20;0.20;;;;;;;8.73;100.00;98211.00;5072431;28;21324;-81
2021/10/21 09:46:32;;;;;;;0.20;0.20;;;;;;;8.73;100.00;98238.09;5065713;28;20048;-83
2021/10/21 09:49:32;;;;;;;0.20;0.20;;;;;;;8.76;100.00;98250.22;5064774;28;20048;-82
2021/10/21 09:52:15;;;;;;;0.20;0.20;;;;;;;8.86;100.00;98276.94;5068496;28;20730;-83
2021/10/21 09:54:48;;;;;;;0.20;0.20;;;;;;;8.95;100.00;98285.84;5068219;28;20052;-82
2021/10/21 09:57:29;;;;;;;0.30;0.30;;;;;;;9.05;100.00;98300.16;5064316;28;20060;-81
2021/10/21 10:00:04;;;;;;;0.17;0.17;;;;;;;9.04;100.00;98315.63;5064688;28;20049;-83
2021/10/21 10:02:40;;;;;;;0.20;0.20;;;;;;;9.02;100.00;98336.88;5071876;28;20052;-84
2021/10/21 10:05:16;;;;;;;0.20;0.20;;;;;;;8.99;100.00;98345.66;5076644;28;20071;-82
2021/10/21 10:07:45;;;;;;;0.20;0.20;;;;;;;9.15;100.00;98364.91;5073422;28;20056;-82
2021/10/21 10:10:18;;;;;;;0.20;0.20;;;;;;;9.06;100.00;98381.22;5068341;28;20048;-84
2021/10/21 10:12:51;;;;;;;0.20;0.20;;;;;;;8.92;100.00;98384.16;5068013;28;20048;-82
2021/10/21 10:15:24;;;;;;;0.20;0.20;;;;;;;8.87;100.00;98388.97;5066780;28;20067;-82
2021/10/21 10:17:58;;;;;;;0.20;0.20;;;;;;;8.88;100.00;98398.69;5060141;28;20063;-83
2021/10/21 10:20:28;;;;;;;0.20;0.20;;;;;;;8.77;100.00;98426.16;5056042;28;20055;-83
2021/10/21 10:23:04;;;;;;;0.20;0.20;;;;;;;8.68;100.00;98431.59;5064736;28;20048;-84
2021/10/21 10:25:45;;;;;;;0.20;0.20;;;;;;;8.59;100.00;98428.13;5065222;28;20392;-82
2021/10/21 10:28:20;;;;;;;0.20;0.20;;;;;;;8.72;100.00;98431.75;5079994;28;20056;-80
2021/10/21 10:30:56;;;;;;;0.20;0.20;;;;;;;8.71;100.00;98449.13;5062729;28;20048;-81
2021/10/21 10:33:41;;;;;;;0.20;0.20;;;;;;;8.70;100.00;98452.97;5063330;28;20048;-85
2021/10/21 10:36:28;;;;;;;0.20;0.20;;;;;;;8.75;100.00;98452.78;5073833;28;20047;-80
2021/10/21 10:39:03;;;;;;;0.20;0.20;;;;;;;8.71;100.00;98470.03;5055722;28;20056;-81
2021/10/21 10:41:51;;;;;;;0.20;0.20;;;;;;;8.65;100.00;98482.97;5058432;28;20053;-81
2021/10/21 10:44:58;;;;;;;0.20;0.20;;;;;;;8.68;100.00;98488.53;5062327;28;21332;-82
2021/10/21 10:47:46;;;;;;;0.20;0.20;;;;;;;8.74;100.00;98496.50;5061155;28;20056;-82
2021/10/21 10:50:51;;;;;;;0.20;0.20;;;;;;;8.88;100.00;98513.41;5066473;28;20064;-81
2021/10/21 10:53:47;;;;;;;0.20;0.20;;;;;;;9.11;100.00;98518.63;5061026;28;20063;-81
2021/10/21 10:56:43;;;;;;;0.20;0.20;;;;;;;9.13;100.00;98540.81;5060403;28;20056;-81
2021/10/21 10:59:31;;;;;;;0.20;0.20;;;;;;;9.14;100.00;98551.34;5063882;28;20055;-80
2021/10/21 11:02:31;;;;;;;;;;;;;;;9.15;100.00;98558.34;5058835;28;20040;-81
2021/10/21 11:05:06;;;;;;;0.20;0.20;;;;;;;9.35;100.00;98565.03;5022390;28;19947;-81
2021/10/21 11:07:52;;;;;;;0.20;0.20;;;;;;;9.38;100.00;98588.00;5060089;28;20060;-81
2021/10/21 11:10:43;;;;;;;0.10;0.10;;;;;;;9.36;100.00;98591.06;5059677;28;20082;-81
2021/10/21 11:13:36;;;;;;;0.20;0.20;;;;;;;9.33;100.00;98609.88;5087646;28;20059;-81
2021/10/21 11:16:43;;;;;;;0.20;0.20;;;;;;;9.34;100.00;98615.00;5085556;28;20044;-82
2021/10/21 11:19:52;;;;;;;0.22;0.22;;;;;;;9.33;100.00;98624.25;5086037;28;20040;-81
2021/10/21 11:22:41;;;;;;;0.20;0.20;;;;;;;9.40;100.00;98633.84;5080716;28;20048;-81
2021/10/21 11:25:16;;;;;;;0.20;0.20;;;;;;;9.47;100.00;98642.28;5080946;28;20411;-82
2021/10/21 11:27:53;;;;;;;0.22;0.22;;;;;;;9.40;100.00;98650.91;5085389;28;20059;-82
2021/10/21 11:30:27;;;;;;;0.20;0.20;;;;;;;9.43;100.00;98655.72;5086995;28;20051;-82
2021/10/21 11:33:03;;;;;;;0.20;0.20;;;;;;;9.36;100.00;98645.34;5099791;28;20068;-82
2021/10/21 11:35:38;;;;;;;0.20;0.20;;;;;;;9.26;100.00;98653.81;5088278;28;20052;-82
2021/10/21 11:38:12;;;;;;;0.20;0.20;;;;;;;9.25;100.00;98663.06;5086858;28;20043;-81
2021/10/21 11:40:42;;;;;;;0.20;0.20;;;;;;;9.07;100.00;98677.75;5080646;28;20040;-82
2021/10/21 11:43:22;;;;;;;0.20;0.20;;;;;;;9.14;100.00;98695.19;5081843;28;20044;-81
2021/10/21 11:45:52;;;;;;;0.25;0.25;;;;;;;9.12;100.00;98685.75;5087639;28;20052;-82
2021/10/21 11:48:25;;;;;;;0.20;0.20;;;;;;;8.92;100.00;98679.84;5084636;28;20516;-82
2021/10/21 11:50:58;;;;;;;0.20;0.20;;;;;;;8.81;100.00;98697.50;5078973;28;20052;-82
2021/10/21 11:53:33;;;;;;;0.20;0.20;;;;;;;8.83;100.00;98698.78;5088256;28;20048;-81
2021/10/21 11:56:06;;;;;;;0.20;0.20;;;;;;;8.88;100.00;98721.47;5087584;28;20086;-83
2021/10/21 11:58:45;;;;;;;0.20;0.20;;;;;;;8.98;100.00;98721.97;5083179;28;20496;-83
2021/10/21 12:01:13;;;;;;;0.28;0.28;;;;;;;8.96;100.00;98717.97;5082719;28;20047;-83
2021/10/21 12:03:49;;;;;;;0.22;0.22;;;;;;;8.65;100.00;98757.63;5083638;28;20056;-82
2021/10/21 12:06:22;;;;;;;0.30;0.30;;;;;;;8.36;100.00;98743.78;5070911;28;20527;-83